Time;durP1;ratioP1;P1;durP2;ratioP2;P2;SDS_P1;SDS_P2;PMS_P1;PMS_P2;Temp;Humidity;BMP_temperature;BMP_pressure;BME280_temperature;BME280_humidity;BME280_pressure;Samples;Min_cycle;Max_cycle;Signal;HPM_P1;HPM_P2
2024/04/03 00:01:46;;;;;;;8.17;2.00;;;11.80;71.60;;;;;;5013229;28;20476;-74
2024/04/03 00:04:12;;;;;;;3.90;1.50;;;11.70;73.20;;;;;;5013388;28;20420;-75
2024/04/03 00:06:37;;;;;;;5.70;1.80;;;11.70;73.30;;;;;;5015438;28;20405;-74
2024/04/03 00:09:03;;;;;;;5.10;1.90;;;11.80;72.70;;;;;;5015266;28;20399;-75
2024/04/03 00:11:29;;;;;;;7.90;2.10;;;11.70;73.70;;;;;;5015497;28;20415;-74
2024/04/03 00:13:54;;;;;;;7.87;2.00;;;11.70;75.00;;;;;;5014009;28;20393;-75
2024/04/03 00:16:20;;;;;;;6.20;2.00;;;11.60;75.50;;;;;;5016476;28;20392;-76
2024/04/03 00:18:45;;;;;;;5.67;1.77;;;11.60;75.10;;;;;;5013525;28;20423;-75
2024/04/03 00:21:11;;;;;;;4.88;1.65;;;11.70;75.90;;;;;;5012494;28;20408;-75
2024/04/03 00:23:36;;;;;;;5.03;1.85;;;11.60;76.20;;;;;;5012615;28;20527;-75
2024/04/03 00:26:02;;;;;;;7.00;1.90;;;11.70;75.80;;;;;;5012084;28;20600;-75
2024/04/03 00:28:29;;;;;;;7.17;2.00;;;11.70;76.00;;;;;;5012186;28;20468;-75
2024/04/03 00:30:55;;;;;;;5.70;1.95;;;11.70;76.70;;;;;;5012224;28;20425;-74
2024/04/03 00:33:22;;;;;;;4.07;1.60;;;11.70;76.20;;;;;;5012388;28;20393;-74
2024/04/03 00:35:58;;;;;;;5.25;1.70;;;11.60;76.30;;;;;;5012855;28;20428;-75
2024/04/03 00:38:24;;;;;;;4.72;2.30;;;11.70;76.20;;;;;;5016882;28;20376;-76
2024/04/03 00:41:00;;;;;;;6.07;2.17;;;11.70;77.90;;;;;;5023151;28;20393;-74
2024/04/03 00:43:28;;;;;;;4.87;2.13;;;11.60;78.60;;;;;;5019553;28;20428;-75
2024/04/03 00:45:56;;;;;;;5.88;2.13;;;11.60;79.50;;;;;;5016665;28;20419;-75
2024/04/03 00:48:23;;;;;;;10.40;2.55;;;11.50;80.30;;;;;;5018060;28;20400;-75
2024/04/03 00:50:50;;;;;;;6.32;2.17;;;11.50;81.40;;;;;;5011805;28;20439;-75
2024/04/03 00:53:16;;;;;;;4.40;2.15;;;11.50;81.10;;;;;;5011311;28;20412;-75
2024/04/03 00:55:42;;;;;;;6.45;2.10;;;11.60;81.00;;;;;;5011188;28;20491;-74
2024/04/03 00:58:08;;;;;;;5.88;2.10;;;11.50;81.90;;;;;;5011405;28;20472;-74
2024/04/03 01:00:35;;;;;;;6.30;2.03;;;11.50;83.00;;;;;;5011316;28;20381;-74
2024/04/03 01:03:05;;;;;;;5.20;2.00;;;11.50;84.40;;;;;;5011261;28;20985;-73
2024/04/03 01:05:31;;;;;;;4.60;2.28;;;11.40;85.40;;;;;;5011150;28;20403;-75
2024/04/03 01:07:56;;;;;;;8.03;2.80;;;11.40;86.30;;;;;;5011314;28;20467;-74
2024/04/03 01:10:22;;;;;;;3.78;2.42;;;11.30;88.90;;;;;;5011631;28;20927;-75
2024/04/03 01:12:48;;;;;;;4.55;2.70;;;11.30;88.40;;;;;;5011156;28;20803;-74
2024/04/03 01:15:14;;;;;;;6.43;3.10;;;11.30;89.50;;;;;;5011313;28;20451;-74
2024/04/03 01:17:40;;;;;;;7.63;2.50;;;11.40;90.20;;;;;;5011473;28;20389;-74
2024/04/03 01:20:06;;;;;;;6.68;3.03;;;11.20;90.80;;;;;;5011220;28;21002;-75
2024/04/03 01:22:33;;;;;;;6.25;2.15;;;11.30;92.10;;;;;;5011450;28;20420;-75
2024/04/03 01:24:58;;;;;;;5.23;2.43;;;11.20;92.30;;;;;;5011900;28;20499;-75
2024/04/03 01:27:24;;;;;;;5.07;3.07;;;11.20;93.00;;;;;;5011645;28;20469;-74
2024/04/03 01:29:50;;;;;;;6.93;2.80;;;11.20;93.70;;;;;;5011283;28;20376;-76
2024/04/03 01:32:15;;;;;;;8.33;2.93;;;11.20;93.50;;;;;;5010909;28;20743;-75
2024/04/03 01:34:41;;;;;;;7.33;2.83;;;11.10;95.00;;;;;;5010930;28;20388;-75
2024/04/03 01:37:07;;;;;;;8.90;2.80;;;11.10;95.60;;;;;;5011428;28;20381;-74
2024/04/03 01:39:33;;;;;;;14.32;2.70;;;11.10;95.50;;;;;;5010906;28;20927;-74
2024/04/03 01:41:59;;;;;;;9.55;3.38;;;11.10;96.00;;;;;;5012820;28;20396;-75
2024/04/03 01:44:24;;;;;;;9.77;3.47;;;11.10;97.10;;;;;;5021401;28;20391;-76
2024/04/03 01:46:50;;;;;;;7.13;3.05;;;11.10;97.30;;;;;;5020702;28;20404;-74
2024/04/03 01:49:15;;;;;;;9.90;2.95;;;11.10;97.00;;;;;;5019991;28;20385;-75
2024/04/03 01:51:41;;;;;;;7.27;2.53;;;11.00;97.30;;;;;;5019824;28;20389;-74
2024/04/03 01:54:06;;;;;;;12.20;3.30;;;11.10;97.70;;;;;;5018374;28;20476;-75
2024/04/03 01:56:32;;;;;;;8.00;3.27;;;11.10;97.70;;;;;;5018161;28;21380;-74
2024/04/03 01:58:58;;;;;;;8.80;3.20;;;11.10;97.80;;;;;;5014920;28;20877;-75
2024/04/03 02:01:23;;;;;;;6.90;3.05;;;11.10;97.70;;;;;;5013255;28;20396;-75
2024/04/03 02:03:49;;;;;;;6.32;2.80;;;11.50;99.20;;;;;;5014720;28;20392;-73
2024/04/03 02:06:14;;;;;;;9.47;3.07;;;11.10;98.30;;;;;;5014476;28;20777;-74
2024/04/03 02:08:40;;;;;;;6.67;3.20;;;11.00;99.00;;;;;;5014379;28;20392;-75
2024/04/03 02:11:05;;;;;;;8.23;2.60;;;10.90;99.90;;;;;;5013226;28;20423;-75
2024/04/03 02:13:31;;;;;;;10.90;3.42;;;11.00;99.90;;;;;;5014240;28;20435;-75
2024/04/03 02:15:56;;;;;;;9.20;4.00;;;10.90;99.90;;;;;;5014378;28;20392;-75
2024/04/03 02:18:22;;;;;;;7.73;4.10;;;11.00;99.90;;;;;;5031596;22;20381;-70
2024/04/03 02:20:48;;;;;;;6.30;3.55;;;11.00;99.90;;;;;;5053237;28;20472;-71
2024/04/03 02:23:13;;;;;;;9.00;2.83;;;10.90;99.90;;;;;;5053442;28;20476;-71
2024/04/03 02:25:40;;;;;;;9.13;2.80;;;11.00;99.90;;;;;;5054811;28;20823;-71
2024/04/03 02:28:06;;;;;;;9.88;3.25;;;10.90;99.90;;;;;;5054826;28;20386;-69
2024/04/03 02:30:31;;;;;;;12.25;3.92;;;10.80;99.90;;;;;;5055231;28;20376;-69
2024/04/03 02:32:57;;;;;;;13.07;5.83;;;10.80;99.90;;;;;;5054181;28;20385;-69
2024/04/03 02:35:22;;;;;;;11.07;4.10;;;11.00;99.90;;;;;;5054477;28;20377;-71
2024/04/03 02:37:48;;;;;;;15.95;4.05;;;10.90;99.90;;;;;;5054381;28;20397;-71
2024/04/03 02:40:14;;;;;;;5.07;3.20;;;10.90;99.90;;;;;;5054402;28;20434;-70
2024/04/03 02:42:40;;;;;;;7.75;3.22;;;11.00;99.90;;;;;;5053973;28;20393;-72
2024/04/03 02:45:06;;;;;;;7.90;3.33;;;11.00;99.90;;;;;;5054327;28;20406;-71
2024/04/03 02:47:31;;;;;;;8.40;3.13;;;10.80;99.90;;;;;;5053974;28;20400;-70
2024/04/03 02:49:57;;;;;;;13.30;3.87;;;10.70;99.90;;;;;;5054305;28;20393;-70
2024/04/03 02:52:22;;;;;;;7.73;3.13;;;10.70;99.90;;;;;;5054323;28;20447;-72
2024/04/03 02:54:48;;;;;;;7.78;3.55;;;10.60;99.90;;;;;;5054021;28;20389;-71
2024/04/03 02:57:15;;;;;;;10.95;2.80;;;10.60;99.90;;;;;;5054227;28;20464;-70
2024/04/03 02:59:42;;;;;;;8.55;3.17;;;10.70;99.90;;;;;;5054195;28;20385;-70
2024/04/03 03:02:07;;;;;;;12.85;3.47;;;10.70;99.90;;;;;;5054200;28;20393;-70
2024/04/03 03:04:41;;;;;;;8.82;3.75;;;10.70;99.90;;;;;;5054025;28;20413;-70
2024/04/03 03:07:10;;;;;;;13.88;4.20;;;10.60;99.90;;;;;;5053786;28;20390;-70
2024/04/03 03:09:36;;;;;;;8.63;4.47;;;10.60;99.90;;;;;;5054084;28;20392;-70
2024/04/03 03:12:03;;;;;;;11.67;3.87;;;10.60;99.90;;;;;;5054098;28;20374;-70
2024/04/03 03:14:28;;;;;;;13.50;4.83;;;10.60;99.90;;;;;;5053185;28;20470;-71
2024/04/03 03:16:54;;;;;;;13.97;4.33;;;10.60;99.90;;;;;;5054051;28;20945;-68
2024/04/03 03:19:19;;;;;;;10.87;4.07;;;10.60;99.90;;;;;;5053802;28;20393;-71
2024/04/03 03:21:46;;;;;;;14.70;5.13;;;10.70;99.90;;;;;;5053541;28;20401;-70
2024/04/03 03:24:11;;;;;;;13.05;5.10;;;10.70;99.90;;;;;;5053896;28;20472;-70
2024/04/03 03:26:37;;;;;;;11.43;4.78;;;10.80;99.90;;;;;;5054504;28;20447;-71
2024/04/03 03:29:03;;;;;;;13.60;4.82;;;10.70;99.90;;;;;;5053830;28;20420;-71
2024/04/03 03:31:28;;;;;;;21.53;10.13;;;10.60;99.90;;;;;;5053818;28;20476;-70
2024/04/03 03:33:54;;;;;;;13.57;5.40;;;10.70;99.90;;;;;;5052944;28;20392;-70
2024/04/03 03:36:20;;;;;;;11.43;5.40;;;10.70;99.90;;;;;;5053530;28;20385;-69
2024/04/03 03:38:46;;;;;;;13.40;4.80;;;10.70;99.90;;;;;;5052695;28;20479;-70
2024/04/03 03:41:11;;;;;;;8.93;3.90;;;10.60;99.90;;;;;;5053558;28;20895;-70
2024/04/03 03:43:37;;;;;;;8.35;4.10;;;10.60;99.90;;;;;;5053165;28;20386;-70
2024/04/03 03:46:02;;;;;;;8.37;4.30;;;10.60;99.90;;;;;;5052530;28;20409;-70
2024/04/03 03:54:01;;;;;;;11.55;4.40;;;10.60;99.90;;;;;;5053183;28;20405;-70
2024/04/03 03:56:26;;;;;;;7.15;4.13;;;10.60;99.90;;;;;;5052560;28;20764;-70
2024/04/03 03:58:52;;;;;;;11.00;5.22;;;10.60;99.90;;;;;;5052975;28;20381;-71
2024/04/03 04:01:17;;;;;;;10.60;4.73;;;10.60;99.90;;;;;;5053480;28;20382;-70
2024/04/03 04:03:43;;;;;;;13.20;5.33;;;10.60;99.90;;;;;;5054055;28;20756;-71
2024/04/03 04:06:09;;;;;;;13.07;5.80;;;11.10;99.90;;;;;;5055523;28;20401;-70
2024/04/03 04:08:34;;;;;;;9.30;5.47;;;10.60;99.90;;;;;;5055565;28;20439;-71
2024/04/03 04:11:00;;;;;;;14.93;5.17;;;10.60;99.90;;;;;;5054656;28;20386;-70
2024/04/03 04:13:26;;;;;;;11.10;5.20;;;10.70;99.90;;;;;;5054437;28;20417;-70
2024/04/03 04:15:52;;;;;;;11.07;5.00;;;10.70;99.90;;;;;;5052708;28;20814;-70
2024/04/03 04:18:18;;;;;;;11.63;5.18;;;10.60;99.90;;;;;;5052118;28;20389;-70
2024/04/03 04:20:53;;;;;;;14.10;5.90;;;10.70;99.90;;;;;;5052711;28;20381;-71
2024/04/03 04:23:19;;;;;;;12.10;5.10;;;10.60;99.90;;;;;;5051211;28;20455;-71
2024/04/03 04:26:02;;;;;;;11.30;5.07;;;10.70;99.90;;;;;;5053649;28;20838;-71
2024/04/03 04:28:28;;;;;;;9.55;5.07;;;10.70;99.90;;;;;;5055246;28;20416;-71
2024/04/03 04:30:58;;;;;;;14.15;5.50;;;10.80;99.90;;;;;;5053426;28;20401;-70
2024/04/03 04:33:24;;;;;;;17.43;5.10;;;10.80;99.90;;;;;;5053478;28;20465;-70
2024/04/03 04:35:54;;;;;;;16.40;5.13;;;10.70;99.90;;;;;;5053703;28;20381;-70
2024/04/03 04:38:20;;;;;;;11.35;5.97;;;10.60;99.90;;;;;;5052799;28;20382;-69
2024/04/03 04:40:53;;;;;;;13.68;5.18;;;10.70;99.90;;;;;;5052479;28;20888;-70
2024/04/03 04:43:18;;;;;;;13.30;6.45;;;10.60;99.90;;;;;;5052439;28;20899;-71
2024/04/03 04:45:44;;;;;;;9.07;4.65;;;10.60;99.90;;;;;;5051648;28;20398;-70
2024/04/03 04:48:09;;;;;;;9.18;4.63;;;10.50;99.90;;;;;;5053182;28;20433;-70
2024/04/03 04:50:35;;;;;;;16.00;5.87;;;10.50;99.90;;;;;;5053996;28;20373;-71
2024/04/03 04:53:01;;;;;;;10.57;4.90;;;10.50;99.90;;;;;;5056424;28;20401;-70
2024/04/03 04:55:26;;;;;;;13.73;5.27;;;10.50;99.90;;;;;;5053649;28;20392;-69
2024/04/03 04:57:52;;;;;;;11.90;5.30;;;10.50;99.90;;;;;;5053943;28;20951;-71
2024/04/03 05:00:17;;;;;;;15.37;5.10;;;10.40;99.90;;;;;;5052823;28;20477;-70
2024/04/03 05:02:43;;;;;;;17.43;5.13;;;10.50;99.90;;;;;;5052266;28;20607;-71
2024/04/03 05:05:09;;;;;;;8.88;4.55;;;10.40;99.90;;;;;;5053756;28;20432;-71
2024/04/03 05:07:34;;;;;;;13.80;5.10;;;10.40;99.90;;;;;;5054415;28;20443;-70
2024/04/03 05:10:00;;;;;;;13.25;4.85;;;10.50;99.90;;;;;;5052738;28;20417;-70
2024/04/03 05:12:25;;;;;;;10.63;5.53;;;10.40;99.90;;;;;;5052066;28;20390;-70
2024/04/03 05:14:51;;;;;;;15.80;5.22;;;10.40;99.90;;;;;;5053316;28;20389;-70
2024/04/03 05:17:18;;;;;;;9.63;4.53;;;10.40;99.90;;;;;;5053102;28;20898;-70
2024/04/03 05:19:43;;;;;;;16.27;4.70;;;10.40;99.90;;;;;;5051547;28;20412;-69
2024/04/03 05:22:12;;;;;;;12.73;4.20;;;10.50;99.90;;;;;;5050951;28;20397;-70
2024/04/03 05:24:37;;;;;;;12.70;4.60;;;10.50;99.90;;;;;;5051570;28;20403;-70
2024/04/03 05:27:03;;;;;;;12.77;4.40;;;10.50;99.90;;;;;;5051317;28;20472;-69
2024/04/03 05:29:28;;;;;;;11.18;4.90;;;10.50;99.90;;;;;;5051255;28;20389;-71
2024/04/03 05:31:54;;;;;;;8.90;4.50;;;10.50;99.90;;;;;;5052984;28;20400;-70
2024/04/03 05:34:19;;;;;;;10.25;4.70;;;10.60;99.90;;;;;;5053483;28;20397;-70
2024/04/03 05:36:45;;;;;;;11.00;4.17;;;10.60;99.90;;;;;;5051091;28;20385;-71
2024/04/03 05:39:10;;;;;;;11.60;4.93;;;10.50;99.90;;;;;;5051693;28;20390;-71
2024/04/03 05:41:36;;;;;;;5.90;4.00;;;10.50;99.90;;;;;;5051554;28;20729;-70
2024/04/03 05:44:01;;;;;;;10.37;4.70;;;10.70;99.90;;;;;;5051592;28;20707;-70
2024/04/03 05:46:27;;;;;;;9.95;4.35;;;;;;;;;;5050950;28;20404;-70
2024/04/03 05:48:53;;;;;;;13.63;4.40;;;10.70;99.90;;;;;;5051235;28;20471;-71
2024/04/03 05:51:19;;;;;;;9.93;4.80;;;10.70;99.90;;;;;;5050299;28;20691;-69
2024/04/03 05:53:44;;;;;;;7.10;3.80;;;10.80;99.90;;;;;;5050562;28;20851;-69
2024/04/03 05:56:10;;;;;;;12.50;6.20;;;10.80;99.90;;;;;;5049738;28;20389;-72
2024/04/03 05:58:36;;;;;;;11.23;4.30;;;10.90;99.90;;;;;;5051082;28;20404;-71
2024/04/03 06:01:01;;;;;;;13.07;4.25;;;11.10;99.90;;;;;;5050582;28;20803;-71
2024/04/03 06:03:27;;;;;;;8.10;4.40;;;11.00;98.40;;;;;;5048954;28;20377;-70
2024/04/03 06:05:55;;;;;;;12.93;4.72;;;11.00;96.20;;;;;;5050488;28;20411;-70
2024/04/03 06:08:21;;;;;;;9.93;4.40;;;11.10;94.20;;;;;;5051677;28;20895;-70
2024/04/03 06:10:48;;;;;;;14.02;5.10;;;11.10;95.20;;;;;;5051028;28;20421;-71
2024/04/03 06:13:13;;;;;;;10.50;4.40;;;11.20;94.40;;;;;;5051414;28;20382;-71
2024/04/03 06:15:39;;;;;;;9.45;4.50;;;11.20;92.80;;;;;;5051493;28;20403;-71
2024/04/03 06:18:05;;;;;;;12.60;4.13;;;11.00;91.80;;;;;;5049947;28;20389;-72
2024/04/03 06:20:30;;;;;;;12.90;4.03;;;11.30;90.50;;;;;;5052126;28;20401;-71
2024/04/03 06:22:56;;;;;;;9.23;3.97;;;11.40;88.50;;;;;;5051841;28;20480;-70
2024/04/03 06:25:22;;;;;;;12.73;4.13;;;11.50;87.10;;;;;;5051808;28;20421;-71
2024/04/03 06:27:48;;;;;;;11.33;4.30;;;11.60;84.80;;;;;;5051782;28;20410;-71
2024/04/03 06:30:13;;;;;;;13.07;4.50;;;11.70;84.20;;;;;;5048625;28;20405;-71
2024/04/03 06:32:40;;;;;;;11.38;4.25;;;11.70;85.20;;;;;;5049769;28;20385;-71
2024/04/03 06:35:06;;;;;;;14.82;4.82;;;11.60;84.90;;;;;;5050259;28;20447;-72
2024/04/03 06:37:32;;;;;;;10.65;4.10;;;11.70;83.80;;;;;;5050228;28;20901;-71
2024/04/03 06:39:59;;;;;;;10.93;4.55;;;11.80;82.80;;;;;;5048844;28;20748;-70
2024/04/03 06:42:24;;;;;;;14.98;5.07;;;11.70;82.50;;;;;;5056257;28;20394;-72
2024/04/03 06:44:51;;;;;;;14.05;4.20;;;11.70;83.10;;;;;;5055430;28;20390;-71
2024/04/03 06:47:17;;;;;;;18.20;6.20;;;11.60;83.80;;;;;;5056085;28;20378;-69
2024/04/03 06:49:43;;;;;;;10.03;4.57;;;11.50;86.00;;;;;;5053660;28;20381;-70
2024/04/03 06:52:08;;;;;;;11.80;4.40;;;11.60;87.00;;;;;;5053235;28;20374;-70
2024/04/03 06:54:34;;;;;;;15.80;4.80;;;11.60;87.00;;;;;;5053734;28;20785;-70
2024/04/03 06:57:01;;;;;;;10.73;4.25;;;11.60;86.90;;;;;;5053227;28;20728;-70
2024/04/03 06:59:26;;;;;;;14.45;5.20;;;11.70;84.90;;;;;;5053681;28;20472;-70
2024/04/03 07:01:52;;;;;;;13.98;4.50;;;11.80;86.00;;;;;;5046514;28;20859;-70
2024/04/03 07:04:18;;;;;;;11.07;4.70;;;11.90;82.80;;;;;;5042466;28;20392;-70
2024/04/03 07:06:43;;;;;;;11.50;4.85;;;12.00;82.00;;;;;;5040102;28;20765;-71
2024/04/03 07:09:09;;;;;;;10.33;4.60;;;12.10;80.10;;;;;;5051280;28;20412;-71
2024/04/03 07:11:34;;;;;;;10.23;5.80;;;11.90;86.10;;;;;;5033128;28;20391;-70
2024/04/03 07:14:00;;;;;;;12.30;5.33;;;12.20;81.80;;;;;;5040297;28;20940;-71
2024/04/03 07:16:26;;;;;;;12.00;4.20;;;12.30;79.80;;;;;;5044242;28;20602;-73
2024/04/03 07:18:55;;;;;;;12.55;4.30;;;12.30;78.10;;;;;;5045550;28;20403;-71
2024/04/03 07:21:21;;;;;;;12.05;4.60;;;12.40;77.90;;;;;;5046370;28;20428;-72
2024/04/03 07:23:47;;;;;;;8.00;3.85;;;12.40;76.20;;;;;;5053549;28;20842;-72
2024/04/03 07:26:13;;;;;;;13.07;5.00;;;12.50;75.60;;;;;;5040861;28;20447;-72
2024/04/03 07:28:40;;;;;;;13.23;5.53;;;12.70;74.00;;;;;;5033713;28;20722;-73
2024/04/03 07:31:06;;;;;;;10.75;4.80;;;12.80;72.40;;;;;;5042857;28;20805;-72
2024/04/03 07:33:32;;;;;;;15.70;4.90;;;12.80;72.30;;;;;;5041109;28;20450;-73
2024/04/03 07:35:59;;;;;;;10.90;5.17;;;13.00;72.10;;;;;;5047623;28;20446;-71
2024/04/03 07:38:25;;;;;;;12.20;4.80;;;13.10;70.30;;;;;;5045162;28;20397;-72
2024/04/03 07:40:50;;;;;;;11.73;4.80;;;13.30;66.10;;;;;;5053849;28;20386;-71
2024/04/03 07:43:16;;;;;;;10.70;4.90;;;13.90;67.00;;;;;;5054790;28;20891;-72
2024/04/03 07:45:42;;;;;;;14.43;4.07;;;13.10;66.10;;;;;;5040704;28;20419;-73
2024/04/03 07:48:07;;;;;;;14.13;3.50;;;13.10;67.00;;;;;;5046848;28;20392;-74
2024/04/03 07:50:33;;;;;;;9.27;4.10;;;13.00;66.30;;;;;;5056940;28;20441;-73
2024/04/03 07:52:59;;;;;;;15.73;4.15;;;13.10;68.70;;;;;;5053025;28;20399;-72
2024/04/03 07:55:24;;;;;;;10.50;3.70;;;13.10;66.00;;;;;;5050716;28;20472;-72
2024/04/03 07:57:50;;;;;;;10.45;3.60;;;13.20;64.30;;;;;;5032621;28;20449;-71
2024/04/03 08:00:16;;;;;;;9.27;3.30;;;13.30;63.70;;;;;;5047514;28;20748;-72
2024/04/03 08:02:43;;;;;;;8.63;3.38;;;13.20;63.40;;;;;;5049453;28;20424;-73
2024/04/03 08:05:10;;;;;;;8.80;4.38;;;13.30;62.50;;;;;;5041615;28;20441;-73
2024/04/03 08:07:36;;;;;;;12.77;3.80;;;13.30;63.00;;;;;;5043693;28;20401;-72
2024/04/03 08:10:07;;;;;;;12.85;4.45;;;13.40;62.10;;;;;;5035864;28;20490;-72
2024/04/03 08:12:36;;;;;;;8.30;3.60;;;13.50;61.80;;;;;;5037345;28;20493;-72
2024/04/03 08:15:03;;;;;;;11.20;3.80;;;13.40;61.40;;;;;;5032400;28;20414;-71
2024/04/03 08:17:28;;;;;;;8.93;4.00;;;13.50;62.70;;;;;;5031986;28;20387;-71
2024/04/03 08:19:55;;;;;;;9.90;4.97;;;13.40;62.90;;;;;;5044692;22;20932;-72
2024/04/03 08:22:21;;;;;;;9.20;3.65;;;13.40;62.90;;;;;;5022548;28;20397;-71
2024/04/03 08:24:47;;;;;;;8.43;3.30;;;13.50;61.10;;;;;;5031042;28;20395;-72
2024/04/03 08:27:13;;;;;;;12.18;4.35;;;13.50;60.40;;;;;;5028479;28;20602;-71
2024/04/03 08:29:42;;;;;;;9.65;4.10;;;13.50;61.00;;;;;;5020999;28;20404;-71
2024/04/03 08:32:11;;;;;;;7.00;3.72;;;13.50;61.70;;;;;;5007109;28;20804;-73
2024/04/03 08:34:37;;;;;;;10.68;3.72;;;13.60;61.40;;;;;;4997769;28;20808;-71
2024/04/03 08:37:06;;;;;;;10.77;3.50;;;13.50;59.80;;;;;;5011233;28;20381;-73
2024/04/03 08:39:33;;;;;;;9.27;3.28;;;13.60;60.60;;;;;;5001756;28;20409;-72
2024/04/03 08:42:00;;;;;;;12.80;3.22;;;13.80;60.00;;;;;;4991018;28;20395;-73
2024/04/03 08:44:31;;;;;;;13.25;4.60;;;13.80;60.80;;;;;;4993887;28;20447;-73
2024/04/03 08:46:58;;;;;;;9.63;4.57;;;13.90;58.90;;;;;;4996129;28;20411;-71
2024/04/03 08:49:28;;;;;;;8.13;3.10;;;14.00;57.70;;;;;;5004414;28;20422;-72
2024/04/03 08:52:02;;;;;;;9.32;3.60;;;14.10;56.10;;;;;;5010387;28;20396;-72
2024/04/03 08:54:28;;;;;;;8.73;3.50;;;14.20;54.80;;;;;;4994331;28;20401;-74
2024/04/03 08:56:58;;;;;;;9.13;3.72;;;14.20;54.10;;;;;;4998944;28;20406;-75
2024/04/03 08:59:24;;;;;;;4.45;2.50;;;14.20;54.70;;;;;;4996810;28;20398;-75
2024/04/03 09:01:51;;;;;;;8.70;3.20;;;14.20;53.10;;;;;;4993607;28;20445;-75
2024/04/03 09:04:21;;;;;;;6.97;3.20;;;14.20;53.70;;;;;;5003723;28;20392;-75
2024/04/03 09:06:47;;;;;;;17.97;4.33;;;14.20;54.10;;;;;;4990629;28;20449;-75
2024/04/03 09:09:31;;;;;;;10.25;4.45;;;14.10;54.40;;;;;;4999196;28;20386;-74
2024/04/03 09:12:05;;;;;;;9.33;4.07;;;14.10;54.70;;;;;;5011936;28;20480;-75
2024/04/03 09:14:31;;;;;;;9.83;3.40;;;14.10;54.70;;;;;;5012794;28;20451;-75
2024/04/03 09:16:58;;;;;;;8.52;3.70;;;14.10;54.60;;;;;;5014354;28;20388;-75
2024/04/03 09:19:24;;;;;;;9.13;3.90;;;14.00;55.60;;;;;;5011201;28;20475;-74
2024/04/03 09:21:50;;;;;;;7.47;3.00;;;14.00;55.50;;;;;;5010981;28;20982;-74
2024/04/03 09:24:15;;;;;;;11.70;4.40;;;13.90;55.20;;;;;;5011585;28;20414;-74
2024/04/03 09:26:51;;;;;;;9.88;3.58;;;13.80;55.60;;;;;;5011256;28;20466;-73
2024/04/03 09:29:17;;;;;;;8.63;2.90;;;14.00;56.30;;;;;;5011705;28;20436;-73
2024/04/03 09:31:46;;;;;;;9.73;3.45;;;14.10;54.50;;;;;;5010505;28;20400;-74
2024/04/03 09:34:12;;;;;;;8.73;3.00;;;14.20;54.60;;;;;;5011583;28;20470;-74
2024/04/03 09:36:39;;;;;;;8.15;3.50;;;14.30;53.70;;;;;;5011413;28;20446;-74
2024/04/03 09:39:06;;;;;;;10.02;2.50;;;14.40;53.20;;;;;;5011459;28;20858;-75
2024/04/03 09:41:32;;;;;;;8.80;2.80;;;14.50;52.80;;;;;;5011916;28;20396;-75
2024/04/03 09:44:03;;;;;;;6.10;3.27;;;14.50;50.80;;;;;;5011721;28;20471;-75
2024/04/03 09:46:36;;;;;;;5.30;2.70;;;14.80;51.80;;;;;;5011007;28;20842;-75
2024/04/03 09:49:03;;;;;;;5.40;2.55;;;14.80;51.40;;;;;;5010699;28;20456;-75
2024/04/03 09:51:29;;;;;;;7.70;2.80;;;14.90;49.60;;;;;;5010607;28;20388;-75
2024/04/03 09:53:55;;;;;;;6.10;2.65;;;15.00;49.30;;;;;;5010875;28;20898;-74
2024/04/03 09:56:21;;;;;;;7.68;3.13;;;15.10;49.30;;;;;;5011128;28;20411;-73
2024/04/03 09:58:50;;;;;;;4.85;1.90;;;15.10;47.90;;;;;;5010928;28;20385;-74
2024/04/03 10:01:17;;;;;;;5.30;2.30;;;15.00;47.80;;;;;;5010798;28;20399;-75
2024/04/03 10:03:43;;;;;;;5.47;1.90;;;15.00;48.00;;;;;;5010539;28;20425;-75
2024/04/03 10:06:16;;;;;;;5.38;2.03;;;15.10;47.30;;;;;;5013202;28;20416;-74
2024/04/03 10:08:42;;;;;;;5.57;2.00;;;15.00;45.60;;;;;;5016102;28;20533;-74
2024/04/03 10:11:10;;;;;;;5.70;1.90;;;15.20;46.20;;;;;;5013304;28;20816;-74
2024/04/03 10:13:38;;;;;;;4.78;2.28;;;15.20;44.50;;;;;;5013579;28;20380;-74
2024/04/03 10:16:07;;;;;;;5.35;2.10;;;15.30;44.30;;;;;;5014058;28;20393;-75
2024/04/03 10:18:39;;;;;;;3.55;1.77;;;15.30;44.40;;;;;;5021564;28;20399;-74
2024/04/03 10:21:09;;;;;;;4.70;1.80;;;15.50;44.00;;;;;;5017055;28;21004;-75
2024/04/03 10:23:44;;;;;;;3.00;1.50;;;15.40;43.30;;;;;;5016507;28;20467;-75
2024/04/03 10:26:11;;;;;;;3.72;2.00;;;15.50;42.90;;;;;;5017292;28;20408;-75
2024/04/03 10:28:39;;;;;;;6.70;1.60;;;15.40;42.90;;;;;;5021106;28;20393;-75
2024/04/03 10:31:06;;;;;;;5.05;2.90;;;15.10;44.00;;;;;;5017710;28;20377;-75
2024/04/03 10:33:31;;;;;;;2.17;1.40;;;14.90;45.90;;;;;;5015629;28;20459;-75
2024/04/03 10:35:57;;;;;;;4.10;1.63;;;14.80;45.20;;;;;;5016171;28;20818;-74
2024/04/03 10:38:25;;;;;;;2.93;1.50;;;14.70;45.60;;;;;;5015585;28;20408;-73
2024/04/03 10:40:50;;;;;;;3.95;1.60;;;14.60;45.20;;;;;;5015996;28;20455;-74
2024/04/03 10:43:16;;;;;;;5.30;1.50;;;14.70;45.90;;;;;;5016253;28;20947;-75
2024/04/03 10:45:52;;;;;;;2.30;1.40;;;14.80;46.30;;;;;;5016827;28;20413;-74
2024/04/03 10:48:21;;;;;;;1.63;1.30;;;14.80;45.60;;;;;;5016124;28;20938;-74
2024/04/03 10:50:47;;;;;;;2.53;1.10;;;15.00;45.00;;;;;;5013815;28;20407;-73
2024/04/03 10:53:16;;;;;;;2.70;1.20;;;15.30;43.60;;;;;;5015199;28;20389;-74
2024/04/03 10:55:42;;;;;;;4.40;1.10;;;15.60;41.30;;;;;;5014750;28;20396;-76
2024/04/03 10:58:09;;;;;;;2.80;1.10;;;15.60;39.80;;;;;;5014947;28;20746;-75
2024/04/03 11:00:42;;;;;;;4.30;1.37;;;15.60;40.30;;;;;;5014133;28;20542;-73
2024/04/03 11:03:09;;;;;;;1.90;1.40;;;15.50;41.20;;;;;;5014383;28;20426;-75
2024/04/03 11:05:36;;;;;;;3.42;1.20;;;15.40;41.40;;;;;;5015865;28;20408;-75
2024/04/03 11:08:03;;;;;;;3.07;1.30;;;15.50;40.60;;;;;;5015568;28;20459;-75
2024/04/03 11:10:29;;;;;;;4.35;1.30;;;15.40;41.10;;;;;;5015941;28;20385;-73
2024/04/03 11:13:04;;;;;;;2.38;1.30;;;15.40;40.40;;;;;;5014333;28;20385;-74
2024/04/03 11:15:30;;;;;;;3.38;1.30;;;15.40;40.20;;;;;;5014454;28;20871;-75
2024/04/03 11:17:56;;;;;;;1.67;1.20;;;15.00;40.80;;;;;;5015170;28;20389;-75
2024/04/03 11:20:24;;;;;;;2.20;1.00;;;15.60;39.40;;;;;;5014369;28;20460;-75
2024/04/03 11:22:52;;;;;;;2.30;1.10;;;15.70;39.60;;;;;;5013259;28;20479;-75
2024/04/03 11:25:19;;;;;;;1.65;1.02;;;15.80;38.60;;;;;;5013313;28;20807;-75
2024/04/03 11:27:45;;;;;;;2.40;0.90;;;15.90;38.20;;;;;;5013960;28;20381;-74
2024/04/03 11:30:10;;;;;;;1.90;1.23;;;15.90;37.90;;;;;;5014254;28;20390;-75
2024/04/03 11:32:36;;;;;;;1.50;1.20;;;15.80;38.60;;;;;;5015179;28;20423;-75
2024/04/03 11:35:03;;;;;;;1.97;1.03;;;15.80;38.90;;;;;;5014383;28;20393;-75
2024/04/03 11:37:28;;;;;;;3.92;1.70;;;15.60;40.00;;;;;;5014609;28;20447;-75
2024/04/03 11:39:54;;;;;;;5.20;0.90;;;15.30;41.10;;;;;;5014899;28;20791;-74
2024/04/03 11:42:20;;;;;;;1.90;1.00;;;15.10;43.00;;;;;;5015175;28;20942;-74
2024/04/03 11:44:45;;;;;;;2.40;0.87;;;14.90;44.40;;;;;;5014393;28;20820;-76
2024/04/03 11:47:11;;;;;;;1.20;0.93;;;14.60;46.00;;;;;;5015740;28;20463;-74
2024/04/03 11:49:37;;;;;;;2.70;0.90;;;14.70;46.70;;;;;;5015604;28;20421;-76
2024/04/03 11:52:03;;;;;;;2.90;1.10;;;14.70;47.40;;;;;;5015069;28;20476;-75
2024/04/03 11:54:28;;;;;;;2.40;1.33;;;14.60;49.40;;;;;;5015114;28;20400;-74
2024/04/03 11:56:55;;;;;;;2.20;1.10;;;14.60;49.70;;;;;;5015163;28;20396;-73
2024/04/03 11:59:22;;;;;;;2.60;1.20;;;14.60;51.10;;;;;;5016903;28;20871;-76
2024/04/03 12:01:48;;;;;;;1.88;1.10;;;14.50;52.10;;;;;;5020808;28;20439;-73
2024/04/03 12:04:13;;;;;;;1.90;1.30;;;14.70;52.10;;;;;;5017576;28;20397;-75
2024/04/03 12:06:40;;;;;;;2.80;1.48;;;14.60;51.50;;;;;;5016979;28;20443;-75
2024/04/03 12:09:05;;;;;;;2.30;2.00;;;14.50;52.10;;;;;;5015258;28;20393;-75
2024/04/03 12:11:31;;;;;;;3.67;1.30;;;14.60;52.60;;;;;;5013268;28;20393;-75
2024/04/03 12:13:57;;;;;;;4.33;2.17;;;14.60;51.80;;;;;;5015344;28;20422;-75
2024/04/03 12:16:26;;;;;;;6.82;3.30;;;14.80;49.30;;;;;;5014127;28;20435;-75
2024/04/03 12:19:13;;;;;;;2.83;1.80;;;14.90;51.50;;;;;;5013434;28;20400;-75
2024/04/03 12:21:43;;;;;;;3.63;2.00;;;14.70;52.20;;;;;;5014400;28;20944;-75
2024/04/03 12:24:09;;;;;;;7.95;3.13;;;15.00;51.10;;;;;;5016656;28;20397;-75
2024/04/03 12:26:36;;;;;;;6.78;3.28;;;14.80;53.00;;;;;;5018441;28;20771;-76
2024/04/03 12:29:02;;;;;;;2.72;1.70;;;14.70;52.10;;;;;;5019874;28;20381;-74
2024/04/03 12:31:28;;;;;;;2.30;1.73;;;14.70;52.70;;;;;;5013981;28;20447;-75
2024/04/03 12:33:54;;;;;;;3.50;1.20;;;14.60;53.30;;;;;;5013942;28;20388;-73
2024/04/03 12:36:19;;;;;;;1.50;0.90;;;14.70;52.20;;;;;;5013834;28;20381;-74
2024/04/03 12:38:46;;;;;;;3.33;1.17;;;15.00;51.40;;;;;;5011982;28;20394;-76
2024/04/03 12:41:12;;;;;;;1.70;0.95;;;15.00;52.00;;;;;;5013648;28;20392;-76
2024/04/03 12:43:38;;;;;;;1.80;1.00;;;15.10;50.30;;;;;;5012433;28;20961;-75
2024/04/03 12:46:03;;;;;;;1.30;0.90;;;15.00;50.50;;;;;;5013139;28;20736;-75